• Join FlightAware (Why Join?)
  • Login
  • US Flag 
Trick or treat! (Boo!!) 
02:39AM EDT


 

Airport Tracker/Info


-or-


 

Live Flight TrackerFlight Track Log ✈ SKQ45 ✈ 22-Apr-2013 ✈ KSTL - KOSU

Flight Track Log - Related Links

Times and Time Zones

All times are in EDT time to prevent confusion due to time zone crossing. See the SKQ45 flight status page for this flight to view local times or setup timezone preferences in your user account.

Time Position Orientation Groundspeed Altitude Reporting Facility
EDT Latitude Longitude Course Direction KTS MPH feet Rate Location/Type
12:10AM 38.7439 -90.2625 93° East 124 143 1,900  Level FAA TRACON SMA TRACON (SMA)
12:10AM 38.7497 -90.2500 59° Northeast 129 148 2,400 1,620 Climbing FAA TRACON SMA TRACON (SMA)
12:10AM 38.7569 -90.2331 61° Northeast 142 163 3,000 1,320 Climbing FAA TRACON SMA TRACON (SMA)
12:11AM 38.7633 -90.2178 62° Northeast 152 175 3,300 1,320 Climbing FAA TRACON SMA TRACON (SMA)
12:11AM 38.7697 -90.2011 64° Northeast 166 191 3,900 1,800 Climbing FAA TRACON SMA TRACON (SMA)
12:11AM 38.7786 -90.1803 61° Northeast 172 198 4,500 1,620 Climbing FAA TRACON SMA TRACON (SMA)
12:12AM 38.7858 -90.1639 61° Northeast 172 198 5,000 1,560 Climbing FAA TRACON SMA TRACON (SMA)
12:12AM 38.7947 -90.1422 62° Northeast 177 204 5,600 1,500 Climbing FAA TRACON SMA TRACON (SMA)
12:12AM 38.8019 -90.1247 62° Northeast 179 206 6,000 1,320 Climbing FAA TRACON SMA TRACON (SMA)
12:13AM 38.8092 -90.1069 62° Northeast 184 212 6,500 1,620 Climbing FAA TRACON SMA TRACON (SMA)
12:13AM 38.8181 -90.0842 63° Northeast 186 214 7,100 1,500 Climbing FAA TRACON SMA TRACON (SMA)
12:13AM 38.8219 -90.0642 76° East 187 215 7,500 1,020 Climbing FAA TRACON SMA TRACON (SMA)
12:14AM 38.8233 -90.0433 85° East 191 220 7,800 540 Climbing FAA TRACON SMA TRACON (SMA)
12:14AM 38.8256 -90.0144 84° East 211 243 7,900 120 Climbing FAA TRACON SMA TRACON (SMA)
12:14AM 38.8294 -89.9897 79° East 231 266 7,900  Level FAA TRACON SMA TRACON (SMA)
12:15AM 38.8361 -89.9639 72° East 246 283 7,900 720 Level FAA TRACON SMA TRACON (SMA)
12:15AM 38.8447 -89.9314 71° East 252 290 8,400 1,920 Climbing FAA TRACON SMA TRACON (SMA)
12:15AM 38.8511 -89.9081 71° East 234 269 9,200 2,100 Climbing FAA TRACON SMA TRACON (SMA)
12:16AM 38.8569 -89.8858 71° East 217 250 9,800 1,320 Climbing FAA TRACON SMA TRACON (SMA)
12:16AM 38.8622 -89.8642 73° East 208 239 10,100 1,200 Climbing FAA TRACON SMA TRACON (SMA)
12:16AM 38.8681 -89.8361 75° East 211 243 10,600 1,500 Climbing FAA TRACON SMA TRACON (SMA)
12:17AM 38.8728 -89.8139 75° East 212 244 11,100 1,500 Climbing FAA TRACON SMA TRACON (SMA)
12:17AM 38.8775 -89.7858 78° East 211 243 11,600 1,200 Climbing FAA TRACON SMA TRACON (SMA)
12:17AM 38.8822 -89.7631 75° East 214 246 11,900 900 Climbing FAA TRACON SMA TRACON (SMA)
12:18AM 38.8881 -89.7394 72° East 222 255 12,200 1,200 Climbing FAA TRACON SMA TRACON (SMA)
12:18AM 38.8950 -89.7094 73° East 227 261 12,700 1,260 Climbing FAA TRACON SMA TRACON (SMA)
12:18AM 38.9000 -89.6856 75° East 228 262 13,100 1,200 Climbing FAA TRACON SMA TRACON (SMA)
12:19AM 38.9050 -89.6608 75° East 229 264 13,500 1,020 Climbing FAA TRACON SMA TRACON (SMA)
12:19AM 38.9111 -89.6306 75° East 230 265 13,800 600 Climbing FAA TRACON SMA TRACON (SMA)
12:19AM 38.9172 -89.6050 73° East 240 276 13,900 120 Climbing FAA TRACON SMA TRACON (SMA)
12:20AM 38.9217 -89.5772 78° East 253 291 13,900  Level FAA TRACON SMA TRACON (SMA)
12:20AM 38.9289 -89.5417 75° East 266 306 13,900  Level FAA TRACON SMA TRACON (SMA)
12:20AM 38.9367 -89.5131 71° East 276 318 13,900  Level FAA TRACON SMA TRACON (SMA)
12:21AM 38.9425 -89.4831 76° East 280 322 13,900  Level FAA TRACON SMA TRACON (SMA)
12:21AM 38.9508 -89.4461 74° East 281 323 13,900  Level FAA TRACON SMA TRACON (SMA)
12:21AM 38.9569 -89.4158 75° East 284 327 13,900 900 Level FAA TRACON SMA TRACON (SMA)
12:22AM 38.9622 -89.3867 77° East 277 319 14,500 2,400 Climbing FAA TRACON SMA TRACON (SMA)
12:22AM 38.9697 -89.3542 73° East 250 288 15,500 2,400 Climbing FAA TRACON SMA TRACON (SMA)
12:22AM 38.9761 -89.3314 70° East 230 265 16,100 1,320 Climbing FAA TRACON SMA TRACON (SMA)
12:23AM 38.9778 -89.3067 85° East 220 253 16,400 1,020 Climbing FAA TRACON SMA TRACON (SMA)
12:23AM 38.9844 -89.2775 74° East 221 254 16,800 1,020 Climbing FAA TRACON SMA TRACON (SMA)
12:23AM 38.9897 -89.2533 74° East 226 260 17,100 900 Climbing FAA TRACON SMA TRACON (SMA)
12:24AM 38.9978 -89.2303 66° East 229 264 17,400 1,020 Climbing FAA TRACON SMA TRACON (SMA)
12:24AM 39.0033 -89.1994 77° East 231 266 17,800 1,200 Climbing FAA TRACON SMA TRACON (SMA)
12:24AM 39.0092 -89.1750 73° East 231 266 18,200 1,020 Climbing FAA TRACON SMA TRACON (SMA)
12:25AM 39.0131 -89.1508 78° East 228 262 18,500 1,020 Climbing FAA TRACON SMA TRACON (SMA)
12:25AM 39.0211 -89.1211 71° East 231 266 18,900 600 Climbing FAA TRACON SMA TRACON (SMA)
12:25AM 39.0228 -89.1144 72° East 232 267 18,900  Level FAA TRACON SMA TRACON (SMA)
12:26AM 39.0228 -89.1144 237° Southwest 232 267 18,900 120 Level FAA TRACON SMA TRACON (SMA)
12:26AM 39.0369 -89.0908 52° Northeast 251 289 19,000 60 Climbing Kansas City Center
12:27AM 39.0581 -88.9853 76° East 282 325 19,000  Level Kansas City Center
12:28AM 39.0778 -88.8975 74° East 290 334 19,000  Level Kansas City Center
12:29AM 39.0978 -88.7958 76° East 293 337 19,000  Level Kansas City Center
12:30AM 39.1169 -88.6942 76° East 292 336 19,000  Level Kansas City Center
12:31AM 39.1394 -88.5850 75° East 293 337 19,000  Level Kansas City Center
12:32AM 39.1592 -88.4839 76° East 291 335 19,000  Level Kansas City Center
12:33AM 39.1786 -88.3828 76° East 291 335 19,000  Level Kansas City Center
12:34AM 39.1989 -88.2819 75° East 290 334 19,000  Level Kansas City Center
12:35AM 39.2172 -88.1811 77° East 288 331 19,000  Level Kansas City Center
12:36AM 39.2367 -88.0794 76° East 289 333 19,000  Level Kansas City Center
12:37AM 39.2561 -87.9792 76° East 288 331 19,000  Level Kansas City Center
12:38AM 39.2747 -87.8775 77° East 289 333 19,000  Level Kansas City Center
12:39AM 39.2933 -87.7775 76° East 288 331 19,000  Level Indianapolis Center
12:40AM 39.3131 -87.6747 76° East 290 334 19,000  Level Indianapolis Center
12:41AM 39.3317 -87.5731 77° East 291 335 19,000  Level Indianapolis Center
12:42AM 39.3508 -87.4692 77° East 292 336 19,000  Level Indianapolis Center
12:43AM 39.3714 -87.3664 75° East 293 337 19,000  Level Indianapolis Center
12:44AM 39.3897 -87.2639 77° East 293 337 19,000  Level Indianapolis Center
12:45AM 39.4083 -87.1611 77° East 292 336 19,000  Level Indianapolis Center
12:46AM 39.4272 -87.0597 76° East 291 335 19,000  Level Indianapolis Center
12:47AM 39.4456 -86.9586 77° East 290 334 19,000  Level Indianapolis Center
12:48AM 39.4633 -86.8558 77° East 290 334 19,000  Level Indianapolis Center
12:49AM 39.4825 -86.7547 76° East 289 333 19,000  Level Indianapolis Center
12:50AM 39.5006 -86.6542 77° East 287 330 19,000  Level Indianapolis Center
12:51AM 39.5175 -86.5514 78° East 289 333 19,000  Level Indianapolis Center
12:52AM 39.5372 -86.4506 76° East 288 331 19,000  Level Indianapolis Center
12:53AM 39.5553 -86.3478 77° East 290 334 19,000 -60 Level Indianapolis Center
12:55AM 39.5906 -86.1417 77° East 293 337 18,900  Descending Indianapolis Center
12:56AM 39.6081 -86.0392 77° East 291 335 19,000  Climbing Indianapolis Center
12:57AM 39.6253 -85.9350 78° East 293 337 19,000  Level Indianapolis Center
12:58AM 39.6439 -85.8336 77° East 290 334 19,000  Level Indianapolis Center
12:59AM 39.6625 -85.7314 77° East 290 334 19,000  Level Indianapolis Center
01:00AM 39.6786 -85.6286 78° East 290 334 19,000  Level Indianapolis Center
01:01AM 39.6967 -85.5236 77° East 289 333 19,000  Level Indianapolis Center
01:02AM 39.7133 -85.4211 78° East 288 331 19,000  Level Indianapolis Center
01:03AM 39.7306 -85.3189 78° East 288 331 19,000  Level Indianapolis Center
01:04AM 39.7472 -85.2158 78° East 288 331 19,000  Level Indianapolis Center
01:05AM 39.7639 -85.1122 78° East 290 334 19,000  Level Indianapolis Center
01:06AM 39.7822 -85.0092 77° East 290 334 19,000  Level Indianapolis Center
01:07AM 39.7992 -84.9053 78° East 291 335 19,000 -180 Level Indianapolis Center
01:08AM 39.8147 -84.8017 79° East 291 335 18,700 -660 Descending Indianapolis Center
01:09AM 39.8325 -84.6925 78° East 305 351 17,700 -900 Descending Indianapolis Center
01:10AM 39.8511 -84.5803 78° East 313 360 16,900 -900 Descending Indianapolis Center
01:11AM 39.8692 -84.4683 78° East 313 360 15,900 -1,080 Descending Indianapolis Center
01:12AM 39.8869 -84.3575 78° East 310 357 14,800 -1,020 Descending Indianapolis Center
01:13AM 39.9036 -84.2472 79° East 307 353 13,900 -960 Descending Indianapolis Center
01:14AM 39.9206 -84.1386 78° East 305 351 12,900 -1,020 Descending Indianapolis Center
01:15AM 39.9367 -84.0319 79° East 299 344 11,900 -960 Descending Indianapolis Center
01:16AM 39.9525 -83.9300 79° East 286 329 11,000 -540 Descending Indianapolis Center
01:17AM 39.9653 -83.8419 79° East 268 308 10,900 -120 Descending Indianapolis Center
01:18AM 39.9706 -83.7992 81° East 260 299 10,900 -240 Level Indianapolis Center
01:18AM 39.9811 -83.7403 77° East 261 300 10,700 -600 Descending Indianapolis Center
01:19AM 39.9858 -83.7058 80° East 259 298 10,300 -840 Descending Indianapolis Center
01:19AM 39.9933 -83.6581 78° East 270 311 9,900 -420 Descending Indianapolis Center
01:20AM 39.9994 -83.6067 81° East 277 319 9,900  Level Indianapolis Center
01:20AM 40.0081 -83.5608 76° East 268 308 9,900 -720 Level Indianapolis Center
01:21AM 40.0172 -83.5081 77° East 266 306 9,200 -1,500 Descending Indianapolis Center
01:21AM 40.0269 -83.4628 74° East 272 313 8,400 -1,620 Descending Indianapolis Center
01:22AM 40.0375 -83.4017 77° East 282 325 7,400 -1,740 Descending Indianapolis Center
01:22AM 40.0481 -83.3647 70° East 277 319 6,700 -1,920 Descending Indianapolis Center
01:23AM 40.0611 -83.3064 74° East 258 297 5,300 -2,100 Descending Indianapolis Center
01:23AM 40.0689 -83.2761 71° East 263 303 4,600 -2,220 Descending Indianapolis Center
01:24AM 40.0758 -83.2128 82° East 236 272 3,100 -1,620 Descending Indianapolis Center
01:24AM 40.0811 -83.1797 78° East 251 289 3,000 -300 Descending Indianapolis Center